Knossos Palace — SYQO — position and weather

sailwx.info

Track history (hours):
 
Tides and Currents Weather Stations Pressure Air Temp Water Temp Dewpoint Dewpoint Depression Visibility Wind Speed Wind Dir Waves Ship Positions

Knossos Palace

Last reported at 2016-Sep-28 19:34 UTC. Time now 2016-Sep-29 11:57 UTC.
Position N 37°33' E 023°45'.

Length 214 m; beam 26.4 m; draft 7.3 m.

Type: Ship. MMSI: 237641000.

Date/timePositionNaut miles runAvg speedWind from/ knotsBaromVisibWave heightAir tempDewpointWater temp
2016-Sep-28 19:34N 37°33' E 023°45'25 8.2
2016-Sep-28 16:33N 37°57' E 023°38'0 0.0
2016-Sep-28 15:33N 37°57' E 023°38'0 0.0
2016-Sep-28 12:33N 37°57' E 023°38'0 0.0
2016-Sep-28 08:33N 37°57' E 023°38'0 0.0
2016-Sep-28 03:34N 37°57' E 023°38'1615.6
2016-Sep-28 02:33N 37°42' E 023°45'2120.9
2016-Sep-28 01:33N 37°22' E 023°53'91 3.7
2016-Sep-27 01:00N 36°00' E 024°42'9019.0 360 / 251016.910.8 21.016.425.0
2016-Sep-26 20:16N 37°21' E 023°53'1319.2
2016-Sep-26 19:33N 37°33' E 023°46'24 6.0
2016-Sep-26 15:33N 37°57' E 023°38'0 0.0
2016-Sep-26 13:33N 37°57' E 023°38'0 0.0
2016-Sep-26 11:33N 37°57' E 023°38'14 1.5
2016-Sep-26 02:33N 37°44' E 023°44'2120.7
2016-Sep-26 01:33N 37°25' E 023°53'93 3.8
2016-Sep-25 01:00N 36°00' E 024°42'10318.9 360 / 251017.910.8 21.018.024.0
2016-Sep-24 19:34N 37°32' E 023°46'1919.0
2016-Sep-24 18:34N 37°50' E 023°37'7 6.9
2016-Sep-24 17:33N 37°57' E 023°38'0 0.0
2016-Sep-24 16:33N 37°57' E 023°38'0 0.0
2016-Sep-24 14:33N 37°57' E 023°38'3115.3
2016-Sep-24 12:33N 37°28' E 023°51'  
2016-Sep-21 19:33N 37°35' E 023°44'22 7.2
2016-Sep-21 16:33N 37°57' E 023°38'0 0.0
2016-Sep-21 09:33N 37°57' E 023°38'0 0.0
2016-Sep-21 08:33N 37°57' E 023°38'0 0.0
2016-Sep-21 05:33N 37°57' E 023°38'0 0.0
2016-Sep-21 03:33N 37°57' E 023°38'1413.7
2016-Sep-21 02:33N 37°44' E 023°44'3421.8
2016-Sep-21 01:00N 37°12' E 024°00'48 1.6 360 / 141008.910.8 24.019.626.0
2016-Sep-19 19:33N 37°57' E 023°38'0 0.0
2016-Sep-19 18:33N 37°57' E 023°38'0 0.0
2016-Sep-19 16:33N 37°57' E 023°38'0 0.0
2016-Sep-19 14:33N 37°57' E 023°38'0 0.0
2016-Sep-19 13:33N 37°57' E 023°38'0 0.0
2016-Sep-19 12:33N 37°57' E 023°38'0 0.0
2016-Sep-19 11:33N 37°57' E 023°38'0 0.0
2016-Sep-19 09:33N 37°57' E 023°38'0 0.0
2016-Sep-19 07:33N 37°57' E 023°38'0 0.0
2016-Sep-19 06:33N 37°57' E 023°38'0 0.0
2016-Sep-19 03:33N 37°56' E 023°38'1514.8
2016-Sep-19 02:33N 37°43' E 023°44'4120.7
2016-Sep-19 00:33N 37°04' E 024°02'  
Track history (hours):
 
Tides and Currents Weather Stations Pressure Air Temp Water Temp Dewpoint Dewpoint Depression Visibility Wind Speed Wind Dir Waves Ship Positions

Knossos Palace

Last reported at 2016-Sep-28 19:34 UTC. Time now 2016-Sep-29 11:57 UTC.
Position N 37°33' E 023°45'.

Length 214 m; beam 26.4 m; draft 7.3 m.

Type: Ship. MMSI: 237641000.

Date/timePositionNaut miles runAvg speedWind from/ knotsBaromVisibWave heightAir tempDewpointWater temp
2016-Sep-28 19:34N 37°33' E 023°45'25 8.2
2016-Sep-28 16:33N 37°57' E 023°38'0 0.0
2016-Sep-28 15:33N 37°57' E 023°38'0 0.0
2016-Sep-28 12:33N 37°57' E 023°38'0 0.0
2016-Sep-28 08:33N 37°57' E 023°38'0 0.0
2016-Sep-28 03:34N 37°57' E 023°38'1615.6
2016-Sep-28 02:33N 37°42' E 023°45'2120.9
2016-Sep-28 01:33N 37°22' E 023°53'91 3.7
2016-Sep-27 01:00N 36°00' E 024°42'9019.0 360 / 251016.910.8 21.016.425.0
2016-Sep-26 20:16N 37°21' E 023°53'1319.2
2016-Sep-26 19:33N 37°33' E 023°46'24 6.0
2016-Sep-26 15:33N 37°57' E 023°38'0 0.0
2016-Sep-26 13:33N 37°57' E 023°38'0 0.0
2016-Sep-26 11:33N 37°57' E 023°38'14 1.5
2016-Sep-26 02:33N 37°44' E 023°44'2120.7
2016-Sep-26 01:33N 37°25' E 023°53'93 3.8
2016-Sep-25 01:00N 36°00' E 024°42'10318.9 360 / 251017.910.8 21.018.024.0
2016-Sep-24 19:34N 37°32' E 023°46'1919.0
2016-Sep-24 18:34N 37°50' E 023°37'7 6.9
2016-Sep-24 17:33N 37°57' E 023°38'0 0.0
2016-Sep-24 16:33N 37°57' E 023°38'0 0.0
2016-Sep-24 14:33N 37°57' E 023°38'3115.3
2016-Sep-24 12:33N 37°28' E 023°51'  
2016-Sep-21 19:33N 37°35' E 023°44'22 7.2
2016-Sep-21 16:33N 37°57' E 023°38'0 0.0
2016-Sep-21 09:33N 37°57' E 023°38'0 0.0
2016-Sep-21 08:33N 37°57' E 023°38'0 0.0
2016-Sep-21 05:33N 37°57' E 023°38'0 0.0
2016-Sep-21 03:33N 37°57' E 023°38'1413.7
2016-Sep-21 02:33N 37°44' E 023°44'3421.8
2016-Sep-21 01:00N 37°12' E 024°00'48 1.6 360 / 141008.910.8 24.019.626.0
2016-Sep-19 19:33N 37°57' E 023°38'0 0.0
2016-Sep-19 18:33N 37°57' E 023°38'0 0.0
2016-Sep-19 16:33N 37°57' E 023°38'0 0.0
2016-Sep-19 14:33N 37°57' E 023°38'0 0.0
2016-Sep-19 13:33N 37°57' E 023°38'0 0.0
2016-Sep-19 12:33N 37°57' E 023°38'0 0.0
2016-Sep-19 11:33N 37°57' E 023°38'0 0.0
2016-Sep-19 09:33N 37°57' E 023°38'0 0.0
2016-Sep-19 07:33N 37°57' E 023°38'0 0.0
2016-Sep-19 06:33N 37°57' E 023°38'0 0.0
2016-Sep-19 03:33N 37°56' E 023°38'1514.8
2016-Sep-19 02:33N 37°43' E 023°44'4120.7
2016-Sep-19 00:33N 37°04' E 024°02'  

Dump ship's entire track history